Time;durP1;ratioP1;P1;durP2;ratioP2;P2;SDS_P1;SDS_P2;PMS_P1;PMS_P2;Temp;Humidity;BMP_temperature;BMP_pressure;BME280_temperature;BME280_humidity;BME280_pressure;Samples;Min_cycle;Max_cycle;Signal;HPM_P1;HPM_P2
2021/11/12 00:03:14;;;;;;;11.50;4.77;;;;;;;5.56;70.08;101302.09;125289;1102;104203;-79
2021/11/12 00:13:45;;;;;;;11.73;4.70;;;;;;;5.60;69.89;101291.89;125284;1102;104178;-80
2021/11/12 00:16:16;;;;;;;9.97;4.20;;;;;;;5.61;70.11;101289.39;125216;1102;105387;-78
2021/11/12 00:18:47;;;;;;;14.83;5.03;;;;;;;5.62;70.19;101283.36;125204;1102;104245;-79
2021/11/12 00:21:19;;;;;;;10.23;4.30;;;;;;;5.64;70.58;101288.67;125317;1102;104272;-79
2021/11/12 00:23:49;;;;;;;12.13;4.50;;;;;;;5.63;70.03;101290.39;125306;1102;104229;-80
2021/11/12 00:26:21;;;;;;;12.00;4.50;;;;;;;5.62;70.59;101275.55;125229;1099;104168;-80
2021/11/12 00:28:54;;;;;;;12.20;4.53;;;;;;;5.59;70.51;101275.34;125294;1100;104248;-80
2021/11/12 00:31:31;;;;;;;14.07;4.70;;;;;;;5.61;70.34;101288.47;125270;1102;104159;-80
2021/11/12 00:36:51;;;;;;;14.67;4.80;;;;;;;5.65;70.07;101278.37;125189;1102;104201;-79
2021/11/12 00:39:25;;;;;;;10.53;4.47;;;;;;;5.70;70.02;101274.39;125220;1102;104267;-79
2021/11/12 00:42:05;;;;;;;14.80;4.57;;;;;;;5.73;70.31;101273.67;125272;1102;101661;-80
2021/11/12 00:44:39;;;;;;;13.53;4.30;;;;;;;5.72;70.47;101280.59;125192;1102;104137;-78
2021/11/12 00:47:19;;;;;;;12.00;4.55;;;;;;;5.70;70.35;101268.26;125271;1102;104169;-81
2021/11/12 00:50:07;;;;;;;9.17;4.73;;;;;;;5.66;70.22;101267.16;125153;1102;104146;-79
2021/11/12 00:52:43;;;;;;;14.27;4.87;;;;;;;5.64;70.37;101276.58;125320;1100;104146;-79
2021/11/12 00:55:14;;;;;;;12.77;5.00;;;;;;;5.62;70.34;101272.05;125239;1102;104576;-80
2021/11/12 00:57:45;;;;;;;14.20;4.67;;;;;;;5.62;70.71;101272.95;125238;1100;102810;-79
2021/11/12 01:00:17;;;;;;;12.07;4.70;;;;;;;5.62;70.31;101270.34;125230;1102;104149;-79
2021/11/12 01:02:49;;;;;;;12.93;4.70;;;;;;;5.64;70.37;101263.56;125235;1100;104162;-79
2021/11/12 01:05:25;;;;;;;12.83;4.37;;;;;;;5.64;70.53;101260.95;125236;1102;104149;-79
2021/11/12 01:07:59;;;;;;;12.20;4.80;;;;;;;5.63;70.71;101272.16;125220;1100;104145;-80
2021/11/12 01:10:33;;;;;;;9.20;4.33;;;;;;;5.63;70.77;101274.77;125258;1102;104291;-79
2021/11/12 01:13:07;;;;;;;11.28;4.60;;;;;;;5.61;70.85;101260.75;125256;1102;104159;-79
2021/11/12 01:15:42;;;;;;;14.47;5.03;;;;;;;5.58;70.83;101265.75;125203;1102;104235;-79
2021/11/12 01:18:18;;;;;;;12.60;4.77;;;;;;;5.57;70.36;101269.14;125193;1102;105507;-80
2021/11/12 01:20:50;;;;;;;12.87;4.73;;;;;;;5.57;70.30;101263.94;125228;1102;104200;-80
2021/11/12 01:23:24;;;;;;;11.80;4.30;;;;;;;5.59;70.08;101272.73;125313;1102;104248;-80
2021/11/12 01:25:56;;;;;;;12.45;4.50;;;;;;;5.58;70.76;101273.56;125169;1102;104150;-80
2021/11/12 01:28:27;;;;;;;10.77;4.43;;;;;;;5.58;70.42;101270.95;125194;1102;104175;-79
2021/11/12 01:30:58;;;;;;;12.20;5.03;;;;;;;5.57;70.19;101264.83;125243;1102;104181;-80
2021/11/12 01:33:29;;;;;;;12.77;4.50;;;;;;;5.56;70.60;101264.72;125307;1102;104201;-79
2021/11/12 01:36:08;;;;;;;11.30;4.60;;;;;;;5.51;70.70;101267.01;125268;1102;104207;-80
2021/11/12 01:38:38;;;;;;;11.40;4.43;;;;;;;5.49;70.38;101265.13;125223;1102;104261;-79
2021/11/12 01:41:09;;;;;;;10.27;4.50;;;;;;;5.42;70.74;101260.28;125268;1099;104143;-80
2021/11/12 01:43:42;;;;;;;16.43;5.30;;;;;;;5.38;70.91;101260.07;125243;1099;104146;-80
2021/11/12 01:49:07;;;;;;;14.77;4.93;;;;;;;5.35;70.88;101254.66;125235;1100;104140;-79
2021/11/12 01:51:46;;;;;;;10.83;4.33;;;;;;;5.38;71.15;101259.17;125202;1102;104195;-79
2021/11/12 01:54:36;;;;;;;11.50;4.33;;;;;;;5.40;71.05;101260.17;125258;1102;104149;-79
2021/11/12 01:59:54;;;;;;;10.87;4.77;;;;;;;5.36;70.91;101253.87;125237;1102;104072;-79
2021/11/12 02:02:26;;;;;;;14.77;4.80;;;;;;;5.34;70.79;101257.15;125314;1098;104316;-80
2021/11/12 02:04:59;;;;;;;12.85;5.00;;;;;;;5.33;70.88;101261.46;125305;1102;103108;-79
2021/11/12 02:07:33;;;;;;;17.53;5.50;;;;;;;5.33;70.63;101268.34;125287;1099;104150;-80
2021/11/12 02:10:07;;;;;;;11.67;4.60;;;;;;;5.34;70.73;101272.77;125281;1102;104207;-80
2021/11/12 02:12:48;;;;;;;16.53;5.10;;;;;;;5.34;70.61;101271.05;125182;1102;104149;-79
2021/11/12 02:15:20;;;;;;;13.07;4.80;;;;;;;5.36;70.82;101268.56;125251;1102;104284;-80
2021/11/12 02:17:59;;;;;;;12.43;4.80;;;;;;;5.29;70.68;101269.84;125258;1102;104145;-80
2021/11/12 02:20:35;;;;;;;12.00;5.03;;;;;;;5.27;71.06;101276.66;125237;1102;104143;-80
2021/11/12 02:23:06;;;;;;;11.73;4.83;;;;;;;5.24;70.69;101281.64;125146;1102;104191;-79
2021/11/12 02:25:39;;;;;;;12.73;4.73;;;;;;;5.19;70.87;101278.72;125268;1102;104245;-80
2021/11/12 02:28:13;;;;;;;13.20;4.97;;;;;;;5.12;71.07;101279.08;125259;1101;104229;-79
2021/11/12 02:30:49;;;;;;;15.03;5.20;;;;;;;5.07;70.50;101282.17;125230;1102;107785;-80
2021/11/12 02:33:22;;;;;;;11.70;4.97;;;;;;;5.07;71.14;101287.38;125304;1099;104182;-79
2021/11/12 02:36:06;;;;;;;11.00;5.05;;;;;;;5.03;70.43;101287.16;125253;1102;104169;-79
2021/11/12 02:38:39;;;;;;;13.00;4.80;;;;;;;5.03;70.53;101287.16;125278;1099;104159;-79
2021/11/12 02:41:11;;;;;;;10.05;4.65;;;;;;;5.03;70.96;101281.95;125294;1099;117885;-80
2021/11/12 02:43:45;;;;;;;11.07;4.30;;;;;;;5.03;70.99;101281.03;125179;1099;104144;-79
2021/11/12 02:46:27;;;;;;;11.87;4.73;;;;;;;5.03;71.02;101288.83;125254;1099;104233;-79
2021/11/12 02:48:59;;;;;;;10.40;4.47;;;;;;;5.00;70.78;101286.94;125135;1102;104264;-81
2021/11/12 02:51:36;;;;;;;14.23;5.00;;;;;;;4.97;70.43;101286.72;125275;1099;104188;-80
2021/11/12 02:54:12;;;;;;;14.27;5.50;;;;;;;4.93;71.35;101289.00;125209;1102;104251;-79
2021/11/12 02:56:44;;;;;;;26.10;9.47;;;;;;;4.89;71.30;101285.25;125184;1102;104291;-80
2021/11/12 02:59:15;;;;;;;19.87;7.33;;;;;;;4.80;70.70;101280.32;125210;1102;104296;-80
2021/11/12 03:01:47;;;;;;;17.50;6.17;;;;;;;4.75;70.80;101285.97;125238;1099;104153;-80
2021/11/12 03:04:20;;;;;;;18.80;6.43;;;;;;;4.70;71.32;101279.55;125219;1099;104152;-80
2021/11/12 03:06:52;;;;;;;15.83;5.20;;;;;;;4.65;70.43;101287.91;125302;1099;104259;-80
2021/11/12 03:09:26;;;;;;;14.87;5.37;;;;;;;4.63;71.01;101288.62;125218;1099;104613;-79
2021/11/12 03:11:59;;;;;;;15.63;5.57;;;;;;;4.59;70.82;101292.67;125290;1102;104262;-80
2021/11/12 03:14:30;;;;;;;13.47;4.90;;;;;;;4.60;70.80;101289.29;125269;1102;104875;-80
2021/11/12 03:17:02;;;;;;;13.50;5.30;;;;;;;4.61;71.38;101288.50;125243;1101;104165;-80
2021/11/12 03:19:34;;;;;;;13.73;5.47;;;;;;;4.64;71.12;101285.20;125271;1102;104252;-81
2021/11/12 03:22:11;;;;;;;13.13;4.90;;;;;;;4.60;71.07;101284.09;125262;1099;107085;-80
2021/11/12 03:24:49;;;;;;;14.43;6.20;;;;;;;4.60;70.77;101280.59;125249;1099;104159;-80
2021/11/12 03:27:25;;;;;;;18.82;6.22;;;;;;;4.57;70.90;101273.47;125268;1099;104220;-80
2021/11/12 03:30:20;;;;;;;13.03;5.77;;;;;;;4.54;70.89;101277.55;125220;1099;104153;-80
2021/11/12 04:02:52;;;;;;;12.33;5.73;;;;;;;4.30;71.31;101294.06;125173;1102;109474;-80
2021/11/12 04:21:59;;;;;;;17.13;6.93;;;;;;;4.02;72.04;101306.70;125105;1102;104175;-80
2021/11/12 05:11:05;;;;;;;36.93;18.83;;;;;;;3.45;72.18;101341.31;125212;1099;104159;-83
2021/11/12 05:13:57;;;;;;;37.70;18.53;;;;;;;3.45;71.67;101340.42;125164;1099;104179;-84
2021/11/12 05:44:05;;;;;;;35.83;16.87;;;;;;;3.92;72.01;101350.94;125087;1099;104191;-81
2021/11/12 05:46:44;;;;;;;31.37;12.88;;;;;;;3.92;72.83;101354.42;125074;1099;104185;-81
2021/11/12 05:52:00;;;;;;;29.60;13.37;;;;;;;3.88;71.97;101357.59;125005;1102;104169;-83
2021/11/12 05:57:16;;;;;;;28.45;12.60;;;;;;;3.89;71.79;101361.09;125121;1099;104169;-81
2021/11/12 05:59:47;;;;;;;27.50;13.20;;;;;;;3.93;72.42;101363.14;125203;1099;104181;-81
2021/11/12 06:02:23;;;;;;;32.50;13.63;;;;;;;4.00;72.87;101370.59;125147;1099;104204;-83
2021/11/12 06:04:57;;;;;;;27.10;12.83;;;;;;;4.10;72.53;101369.62;125051;1099;104175;-82
2021/11/12 06:07:35;;;;;;;29.13;13.63;;;;;;;4.20;72.64;101373.80;125288;1102;104176;-80
2021/11/12 06:10:08;;;;;;;29.47;13.97;;;;;;;4.30;72.86;101371.09;124996;1102;104336;-80
2021/11/12 06:12:40;;;;;;;28.03;13.77;;;;;;;4.37;72.31;101372.47;125234;1102;104185;-81
2021/11/12 06:15:11;;;;;;;26.90;12.33;;;;;;;4.39;72.75;101368.28;125207;1102;104303;-80
2021/11/12 06:17:43;;;;;;;27.63;12.23;;;;;;;4.42;72.66;101373.70;125200;1102;104328;-80
2021/11/12 06:20:16;;;;;;;23.70;10.50;;;;;;;4.41;72.64;101375.41;125258;1102;104254;-80
2021/11/12 06:22:47;;;;;;;27.07;11.23;;;;;;;4.45;72.66;101379.13;125226;1102;104188;-80
2021/11/12 06:25:18;;;;;;;25.07;10.27;;;;;;;4.48;72.73;101375.06;125326;1102;104153;-80
2021/11/12 06:27:49;;;;;;;22.57;10.40;;;;;;;4.51;72.81;101374.39;125257;1102;104306;-81
2021/11/12 06:30:20;;;;;;;21.87;8.87;;;;;;;4.56;72.57;101372.13;125306;1102;104417;-80
2021/11/12 06:32:57;;;;;;;22.80;9.77;;;;;;;4.59;72.93;101367.16;124968;1102;104168;-81
2021/11/12 06:35:29;;;;;;;20.27;9.57;;;;;;;4.64;72.88;101364.12;124921;1102;104383;-84
2021/11/12 06:38:00;;;;;;;23.70;9.93;;;;;;;4.68;72.39;101376.53;125042;1106;104306;-80
2021/11/12 06:40:33;;;;;;;23.93;10.33;;;;;;;4.67;72.90;101374.74;125302;1102;104948;-81
2021/11/12 06:43:09;;;;;;;23.90;9.57;;;;;;;4.64;72.95;101377.12;125223;1102;104283;-79
2021/11/12 06:51:13;;;;;;;25.77;10.40;;;;;;;4.59;72.51;101361.97;125265;1102;104191;-80
2021/11/12 06:53:45;;;;;;;31.13;11.93;;;;;;;4.61;73.11;101360.37;125208;1102;104166;-78
2021/11/12 06:56:19;;;;;;;29.67;12.83;;;;;;;4.63;73.15;101371.80;125199;1102;104152;-78
2021/11/12 06:58:54;;;;;;;31.23;14.30;;;;;;;4.67;73.25;101371.22;126097;1099;104210;-81
2021/11/12 07:01:27;;;;;;;30.40;12.83;;;;;;;4.66;73.30;101366.83;125142;1102;104363;-80
2021/11/12 07:04:03;;;;;;;32.07;13.87;;;;;;;4.65;72.60;101371.11;126219;1099;104303;-81
2021/11/12 07:06:36;;;;;;;24.65;12.07;;;;;;;4.69;73.08;101372.25;125118;1100;119171;-80
2021/11/12 07:09:08;;;;;;;;;;;;;;;4.74;73.12;101376.09;125223;1099;104163;-81
2021/11/12 07:11:42;;;;;;;25.45;11.05;;;;;;;4.76;72.86;101376.20;125166;1102;104188;-81
2021/11/12 07:14:18;;;;;;;27.70;10.53;;;;;;;4.80;73.15;101371.34;125135;1099;104162;-80
2021/11/12 07:16:51;;;;;;;20.77;9.40;;;;;;;4.82;72.75;101374.94;125191;1099;104140;-79
2021/11/12 07:19:24;;;;;;;29.70;11.63;;;;;;;4.81;73.30;101377.43;125136;1102;104314;-79
2021/11/12 07:21:58;;;;;;;21.15;10.05;;;;;;;4.82;73.11;101379.25;125145;1099;104248;-78
2021/11/12 07:24:31;;;;;;;25.05;10.08;;;;;;;4.81;72.93;101373.12;125194;1102;104175;-78
2021/11/12 07:27:02;;;;;;;25.43;10.60;;;;;;;4.86;73.06;101376.98;125229;1099;104181;-79
2021/11/12 07:29:42;;;;;;;23.90;9.10;;;;;;;4.92;73.10;101373.01;125251;1102;104309;-78
2021/11/12 07:32:16;;;;;;;24.23;9.17;;;;;;;4.97;73.36;101364.76;125115;1102;104349;-81
2021/11/12 07:34:51;;;;;;;25.03;9.93;;;;;;;5.03;73.34;101364.27;125159;1099;104140;-81
2021/11/12 07:37:32;;;;;;;27.47;11.70;;;;;;;5.15;73.19;101366.86;126140;1099;102147;-79
2021/11/12 07:40:07;;;;;;;22.43;10.33;;;;;;;5.28;73.30;101363.42;126153;1099;104140;-79
2021/11/12 07:42:51;;;;;;;;;;;;;;;5.33;73.37;101362.97;126240;1099;104185;-78
2021/11/12 07:45:31;;;;;;;25.60;10.63;;;;;;;5.34;73.37;101356.94;125212;1099;104204;-79
2021/11/12 07:48:02;;;;;;;24.83;9.93;;;;;;;5.42;73.42;101364.39;125162;1099;107077;-78
2021/11/12 07:50:36;;;;;;;24.10;9.93;;;;;;;5.48;73.43;101357.02;125154;1099;104637;-78
2021/11/12 07:53:08;;;;;;;24.03;9.20;;;;;;;5.58;73.48;101359.48;125187;1099;104198;-79
2021/11/12 07:55:41;;;;;;;22.53;9.97;;;;;;;5.67;73.26;101352.30;125110;1099;104229;-80
2021/11/12 07:58:12;;;;;;;26.17;11.37;;;;;;;5.76;72.99;101358.15;126115;1099;104163;-78
2021/11/12 08:00:47;;;;;;;23.90;10.87;;;;;;;5.88;73.10;101363.27;126266;1099;104141;-79
2021/11/12 08:03:18;;;;;;;26.27;11.53;;;;;;;5.94;72.85;101348.06;126149;1099;104159;-79
2021/11/12 08:05:53;;;;;;;25.43;10.90;;;;;;;6.02;72.88;101352.94;125288;1102;104252;-78
2021/11/12 08:08:28;;;;;;;27.25;9.85;;;;;;;6.11;72.92;101354.45;125326;1099;104197;-79
2021/11/12 08:11:04;;;;;;;23.07;9.63;;;;;;;6.21;73.16;101360.28;125350;1099;104160;-79
2021/11/12 08:13:41;;;;;;;29.40;10.90;;;;;;;6.29;73.01;101360.01;126121;1099;104130;-78
2021/11/12 08:16:25;;;;;;;22.60;9.60;;;;;;;6.41;72.91;101359.00;126192;1099;104194;-80
2021/11/12 08:19:04;;;;;;;25.10;10.67;;;;;;;6.51;73.02;101355.30;126280;1099;109437;-79
2021/11/12 08:21:52;;;;;;;22.03;10.37;;;;;;;6.59;72.92;101357.61;126269;1099;104241;-78
2021/11/12 08:30:17;;;;;;;23.00;9.20;;;;;;;6.75;73.08;101348.18;125386;1099;104204;-80
2021/11/12 08:32:59;;;;;;;21.93;9.47;;;;;;;6.84;73.04;101349.66;126321;1099;104195;-80
2021/11/12 08:35:42;;;;;;;21.07;9.53;;;;;;;6.97;72.82;101347.84;126303;1098;104149;-79
2021/11/12 08:38:18;;;;;;;24.07;10.13;;;;;;;7.03;72.89;101345.63;126197;1099;104376;-80
2021/11/12 08:41:06;;;;;;;25.07;10.27;;;;;;;7.14;72.80;101359.36;126121;1099;104150;-79
2021/11/12 08:43:43;;;;;;;20.90;9.97;;;;;;;7.20;72.68;101347.58;125210;1102;104322;-82
2021/11/12 08:46:27;;;;;;;27.40;10.60;;;;;;;7.34;72.40;101339.72;125227;1102;104232;-79
2021/11/12 08:49:02;;;;;;;21.97;9.53;;;;;;;7.42;72.62;101350.61;125194;1102;104380;-80
2021/11/12 08:51:37;;;;;;;22.03;9.60;;;;;;;7.50;72.08;101345.06;125231;1102;104188;-80
2021/11/12 08:54:10;;;;;;;20.13;9.17;;;;;;;7.64;72.27;101342.41;125215;1100;104258;-81
2021/11/12 08:56:45;;;;;;;23.10;9.13;;;;;;;7.74;72.13;101331.69;125312;1102;102022;-81
2021/11/12 08:59:17;;;;;;;20.80;9.37;;;;;;;7.81;71.96;101336.48;125244;1102;104178;-80
2021/11/12 09:01:49;;;;;;;20.83;9.20;;;;;;;7.86;71.67;101334.16;125260;1102;103880;-81
2021/11/12 09:04:27;;;;;;;25.93;10.33;;;;;;;7.90;72.02;101331.81;125190;1102;104137;-81
2021/11/12 09:07:09;;;;;;;21.23;8.97;;;;;;;7.96;71.75;101328.64;125079;1102;104290;-78
2021/11/12 09:09:49;;;;;;;23.33;9.20;;;;;;;8.00;71.34;101327.14;125145;1102;104344;-79
2021/11/12 09:12:48;;;;;;;24.73;10.33;;;;;;;8.08;71.87;101325.87;125100;1102;104165;-79
2021/11/12 09:15:28;;;;;;;25.67;10.13;;;;;;;8.15;71.28;101324.51;125435;1099;104197;-78
2021/11/12 09:18:06;;;;;;;23.80;10.37;;;;;;;8.21;71.78;101323.17;125122;1099;104175;-79
2021/11/12 09:20:38;;;;;;;23.67;9.83;;;;;;;8.26;71.45;101315.60;125190;1099;104155;-80
2021/11/12 09:23:13;;;;;;;24.37;9.78;;;;;;;8.38;71.23;101308.47;125163;1099;104334;-78
2021/11/12 09:25:46;;;;;;;26.67;10.33;;;;;;;8.54;71.84;101305.03;125257;1099;104217;-79
2021/11/12 09:28:18;;;;;;;25.77;9.60;;;;;;;8.66;71.29;101304.80;125244;1102;104733;-80
2021/11/12 09:30:51;;;;;;;25.10;10.60;;;;;;;8.80;70.91;101305.58;125151;1099;104290;-80
2021/11/12 09:33:29;;;;;;;25.77;11.27;;;;;;;8.94;71.12;101296.80;125167;1102;104185;-78
2021/11/12 09:36:02;;;;;;;24.75;10.70;;;;;;;9.00;70.81;101294.48;125156;1099;104165;-80
2021/11/12 09:38:38;;;;;;;25.00;10.93;;;;;;;9.00;70.47;101293.59;125126;1102;104319;-80
2021/11/12 09:44:53;;;;;;;25.80;9.73;;;;;;;9.03;70.30;101287.64;125247;1102;104169;-82
2021/11/12 09:47:40;;;;;;;25.20;10.53;;;;;;;9.13;71.00;101284.69;124998;1100;104383;-83
2021/11/12 09:50:20;;;;;;;22.33;11.03;;;;;;;9.20;70.28;101281.59;125268;1100;104181;-81
2021/11/12 09:53:02;;;;;;;25.97;12.13;;;;;;;9.35;70.39;101277.17;125811;1099;104180;-79
2021/11/12 09:55:37;;;;;;;23.67;11.03;;;;;;;9.49;70.60;101274.36;125300;1099;104204;-81
2021/11/12 09:58:11;;;;;;;25.63;11.50;;;;;;;9.52;70.45;101274.52;126175;1099;104146;-81
2021/11/12 10:04:09;;;;;;;;;;;;;;;;;;;;;
2021/11/12 10:10:48;;;;;;;22.77;11.07;;;;;;;9.81;70.07;101272.52;125453;1099;104258;-80
2021/11/12 10:13:27;;;;;;;22.73;10.53;;;;;;;9.77;69.88;101270.55;125154;1099;104178;-79
2021/11/12 10:19:03;;;;;;;25.87;10.83;;;;;;;9.93;69.64;101254.80;125105;1102;104326;-77
2021/11/12 10:21:40;;;;;;;26.53;10.70;;;;;;;10.00;69.47;101254.30;125069;1102;109404;-77
2021/11/12 10:24:17;;;;;;;26.43;11.53;;;;;;;10.10;69.49;101253.02;125153;1099;104181;-78
2021/11/12 10:27:02;;;;;;;28.60;11.43;;;;;;;10.17;69.61;101241.98;125197;1099;104155;-79
2021/11/12 10:29:44;;;;;;;26.30;11.83;;;;;;;10.24;69.63;101243.21;125198;1102;104172;-79
2021/11/12 10:32:24;;;;;;;24.50;12.40;;;;;;;10.28;69.32;101239.89;125232;1102;104213;-79
2021/11/12 10:35:06;;;;;;;26.57;11.13;;;;;;;10.33;69.26;101242.77;125117;1102;104255;-79
2021/11/12 10:37:41;;;;;;;25.83;11.07;;;;;;;10.33;69.26;101230.58;125158;1102;104174;-79
2021/11/12 10:40:18;;;;;;;26.10;11.67;;;;;;;10.37;68.87;101239.48;125239;1102;104171;-81
2021/11/12 10:42:59;;;;;;;29.10;11.43;;;;;;;10.32;68.62;101231.36;125209;1102;104428;-80
2021/11/12 10:45:39;;;;;;;28.73;12.37;;;;;;;10.28;68.96;101228.52;125172;1102;104422;-82
2021/11/12 10:48:11;;;;;;;29.07;12.17;;;;;;;10.30;68.90;101225.15;125186;1103;104217;-79
2021/11/12 10:50:45;;;;;;;29.83;11.90;;;;;;;10.31;68.60;101221.68;125347;1099;104357;-79
2021/11/12 10:53:22;;;;;;;26.77;12.17;;;;;;;10.33;68.16;101225.33;125173;1103;104241;-80
2021/11/12 10:56:03;;;;;;;25.93;13.03;;;;;;;10.40;68.39;101219.53;125265;1099;104140;-78
2021/11/12 10:58:59;;;;;;;24.57;12.27;;;;;;;10.42;68.37;101217.91;125066;1102;104175;-78
2021/11/12 11:01:43;;;;;;;26.23;11.53;;;;;;;10.41;68.00;101210.84;125304;1099;104181;-80
2021/11/12 11:04:20;;;;;;;27.30;12.23;;;;;;;10.46;67.84;101203.20;125983;1099;102301;-77
2021/11/12 11:06:53;;;;;;;26.53;12.73;;;;;;;10.54;67.89;101200.94;125966;1099;104268;-79
2021/11/12 11:09:40;;;;;;;30.07;12.83;;;;;;;10.61;67.96;101203.00;125036;1102;104344;-79
2021/11/12 11:12:39;;;;;;;25.23;12.40;;;;;;;10.64;67.63;101203.14;125073;1102;104406;-80
2021/11/12 11:15:27;;;;;;;27.03;12.00;;;;;;;10.63;67.46;101203.99;125039;1102;104197;-80
2021/11/12 11:18:22;;;;;;;24.27;11.87;;;;;;;10.58;67.56;101194.98;125003;1102;104299;-81
2021/11/12 11:21:06;;;;;;;27.67;12.17;;;;;;;10.55;67.56;101193.13;125000;1102;104283;-81
2021/11/12 11:23:51;;;;;;;27.77;11.87;;;;;;;10.56;67.30;101196.65;125134;1102;105166;-81
2021/11/12 11:26:27;;;;;;;25.67;12.13;;;;;;;10.54;67.28;101188.70;125147;1102;102852;-80
2021/11/12 11:29:02;;;;;;;26.00;12.07;;;;;;;10.56;67.54;101191.40;125142;1102;104184;-80
2021/11/12 11:31:35;;;;;;;25.33;12.00;;;;;;;10.59;67.09;101186.29;125230;1102;104181;-79
2021/11/12 11:34:17;;;;;;;26.10;11.80;;;;;;;10.54;67.18;101169.45;125036;1102;104252;-79
2021/11/12 11:37:03;;;;;;;;;;;;;;;10.59;66.59;101184.55;125104;1102;104230;-81
2021/11/12 11:39:41;;;;;;;26.97;12.00;;;;;;;10.62;66.72;101183.81;125122;1102;104160;-82
2021/11/12 11:42:14;;;;;;;23.43;12.20;;;;;;;10.64;67.10;101179.52;125121;1102;104229;-81
2021/11/12 11:44:47;;;;;;;27.80;12.43;;;;;;;10.65;67.05;101176.08;125305;1099;104152;-81
2021/11/12 11:47:23;;;;;;;29.43;13.27;;;;;;;10.65;66.67;101178.70;126062;1099;104312;-81
2021/11/12 11:49:56;;;;;;;24.83;12.20;;;;;;;10.68;67.02;101170.08;125303;1099;104187;-80
2021/11/12 11:52:33;;;;;;;28.50;13.17;;;;;;;10.70;67.11;101171.93;125296;1099;104278;-78
2021/11/12 11:55:06;;;;;;;27.57;12.97;;;;;;;10.70;66.82;101169.30;126007;1099;104194;-79
2021/11/12 11:57:46;;;;;;;26.67;13.57;;;;;;;10.69;66.78;101167.53;126039;1099;104191;-78
2021/11/12 12:00:27;;;;;;;29.97;14.07;;;;;;;10.68;65.72;101157.84;126263;1099;104149;-80
2021/11/12 12:03:31;;;;;;;31.23;14.27;;;;;;;10.66;66.05;101156.89;125329;1099;104156;-81
2021/11/12 12:06:11;;;;;;;29.70;13.23;;;;;;;10.64;66.33;101155.90;125493;1099;104300;-81
2021/11/12 12:09:03;;;;;;;31.37;12.97;;;;;;;10.65;65.95;101156.82;125255;1099;104175;-82
2021/11/12 12:11:54;;;;;;;25.43;12.80;;;;;;;10.65;65.90;101155.08;126246;1099;105093;-80
2021/11/12 12:14:37;;;;;;;28.27;14.17;;;;;;;10.67;66.12;101158.66;126139;1099;104402;-80
2021/11/12 12:17:28;;;;;;;28.73;13.13;;;;;;;10.67;66.02;101156.04;126119;1099;104149;-79
2021/11/12 12:20:30;;;;;;;25.73;13.20;;;;;;;10.69;65.73;101153.48;125351;1099;104256;-80
2021/11/12 13:21:31;;;;;;;29.13;15.10;;;;;;;10.88;64.24;101148.25;126133;1099;102786;-79
2021/11/12 13:24:17;;;;;;;32.37;15.30;;;;;;;10.87;64.24;101154.32;126165;1099;104207;-80
2021/11/12 13:27:06;;;;;;;31.50;16.30;;;;;;;10.88;64.10;101147.37;125306;1102;104281;-80
2021/11/12 13:29:44;;;;;;;36.23;16.27;;;;;;;10.88;64.07;101150.88;125302;1098;104336;-80
2021/11/12 13:32:20;;;;;;;32.70;15.83;;;;;;;10.87;63.81;101148.19;126116;1099;104194;-81
2021/11/12 13:34:59;;;;;;;33.57;15.40;;;;;;;10.86;63.91;101146.38;125901;1099;104182;-82
2021/11/12 13:37:34;;;;;;;30.97;15.40;;;;;;;10.84;63.69;101148.93;126160;1099;104198;-81
2021/11/12 13:40:11;;;;;;;35.17;15.60;;;;;;;10.85;63.92;101155.10;125362;1099;104656;-80
2021/11/12 13:42:52;;;;;;;35.13;15.97;;;;;;;10.84;64.04;101161.17;126179;1099;104290;-82
2021/11/12 13:45:29;;;;;;;33.97;15.43;;;;;;;10.82;63.57;101155.85;125191;1099;104210;-81
2021/11/12 13:48:12;;;;;;;34.30;16.00;;;;;;;10.82;63.64;101154.97;126010;1099;104718;-82
2021/11/12 13:50:59;;;;;;;32.73;15.37;;;;;;;10.79;63.61;101156.59;125299;1099;104271;-80
2021/11/12 13:53:34;;;;;;;30.87;15.80;;;;;;;10.77;63.36;101158.27;125267;1099;104153;-80
2021/11/12 13:56:13;;;;;;;35.33;16.53;;;;;;;10.75;63.51;101159.94;125313;1099;104188;-81
2021/11/12 13:58:46;;;;;;;32.80;15.47;;;;;;;10.71;63.52;101157.98;125354;1099;104265;-82
2021/11/12 14:01:22;;;;;;;37.40;16.93;;;;;;;10.70;63.75;101155.30;126198;1099;104191;-80
2021/11/12 14:03:54;;;;;;;35.37;17.20;;;;;;;10.65;63.30;101157.70;126246;1099;105463;-79
2021/11/12 14:06:34;;;;;;;33.70;17.43;;;;;;;10.62;63.26;101157.56;125333;1099;104200;-80
2021/11/12 14:09:06;;;;;;;32.67;16.50;;;;;;;10.58;63.38;101166.11;126251;1099;104248;-79
2021/11/12 14:11:41;;;;;;;34.37;17.37;;;;;;;10.53;63.50;101167.64;126138;1099;104192;-80
2021/11/12 14:14:19;;;;;;;32.53;17.07;;;;;;;10.48;63.18;101166.53;125372;1099;104230;-78
2021/11/12 14:16:54;;;;;;;39.63;17.63;;;;;;;10.39;62.85;101160.04;126218;1099;104236;-79
2021/11/12 14:19:48;;;;;;;35.33;17.03;;;;;;;10.30;63.12;101161.27;126282;1099;104188;-79
2021/11/12 14:22:44;;;;;;;33.87;17.10;;;;;;;10.22;63.24;101167.07;126186;1099;104287;-80
2021/11/12 14:28:59;;;;;;;34.83;17.50;;;;;;;10.10;63.52;101162.94;125138;1102;104795;-79
2021/11/12 14:31:50;;;;;;;34.93;17.73;;;;;;;10.08;63.15;101161.16;124944;1102;104354;-78
2021/11/12 14:34:41;;;;;;;38.40;18.65;;;;;;;10.05;63.55;101162.72;124859;1102;104263;-78
2021/11/12 14:37:16;;;;;;;34.40;18.70;;;;;;;10.02;63.48;101170.44;125110;1102;104289;-79
2021/11/12 14:40:03;;;;;;;37.23;18.50;;;;;;;10.00;62.99;101169.47;124997;1102;104418;-78
2021/11/12 14:43:11;;;;;;;38.97;20.23;;;;;;;9.92;63.09;101170.83;125207;1102;104265;-81
2021/11/12 14:46:19;;;;;;;39.10;19.60;;;;;;;9.85;62.87;101175.77;124993;1102;104181;-81
2021/11/12 14:48:59;;;;;;;36.73;19.40;;;;;;;9.79;63.24;101177.20;124990;1102;104280;-79
2021/11/12 14:51:59;;;;;;;40.93;20.37;;;;;;;9.74;63.47;101186.53;125882;1099;104149;-81
2021/11/12 14:54:39;;;;;;;37.63;20.20;;;;;;;9.64;63.29;101183.45;125328;1099;104214;-80
2021/11/12 14:57:31;;;;;;;36.20;19.85;;;;;;;9.57;62.85;101181.36;125441;1099;106009;-79
2021/11/12 15:00:14;;;;;;;41.47;20.63;;;;;;;9.51;63.46;101186.28;125302;1099;104146;-80
2021/11/12 15:02:55;;;;;;;39.60;20.63;;;;;;;9.41;62.83;101186.63;126279;1099;104160;-81
2021/11/12 15:05:29;;;;;;;40.17;21.20;;;;;;;9.31;62.99;101188.77;125259;1099;102053;-81
2021/11/12 15:08:22;;;;;;;40.60;20.97;;;;;;;9.25;63.37;101184.94;126196;1099;104238;-80
2021/11/12 15:10:55;;;;;;;39.70;19.77;;;;;;;9.17;63.04;101188.05;125282;1099;104178;-81
2021/11/12 15:13:32;;;;;;;48.87;23.57;;;;;;;9.12;63.62;101188.65;125337;1099;104242;-81
2021/11/12 15:16:09;;;;;;;44.60;23.87;;;;;;;9.09;63.57;101189.37;126124;1099;104197;-80
2021/11/12 15:18:40;;;;;;;49.23;24.37;;;;;;;9.09;63.30;101188.48;125132;1099;104296;-80
2021/11/12 15:21:15;;;;;;;52.40;26.90;;;;;;;9.02;63.41;101184.62;125786;1099;104165;-79
2021/11/12 15:24:02;;;;;;;59.63;29.27;;;;;;;9.09;63.26;101193.72;125094;1099;104194;-81
2021/11/12 15:26:46;;;;;;;55.13;27.53;;;;;;;9.06;63.41;101197.06;126104;1099;104267;-80
2021/11/12 15:32:14;;;;;;;54.47;28.73;;;;;;;8.98;63.10;101207.13;125025;1102;104236;-79
2021/11/12 15:34:54;;;;;;;61.43;27.93;;;;;;;8.93;63.08;101205.99;124938;1102;104602;-80
2021/11/12 15:37:31;;;;;;;55.53;28.07;;;;;;;8.89;63.07;101209.25;125065;1102;104184;-81
2021/11/12 15:40:08;;;;;;;55.97;26.93;;;;;;;8.85;63.34;101212.55;125084;1102;104294;-79
2021/11/12 15:45:36;;;;;;;63.53;32.37;;;;;;;8.73;63.69;101219.73;125062;1102;104457;-82
2021/11/12 15:48:18;;;;;;;66.70;32.27;;;;;;;8.68;63.14;101226.40;125081;1102;104351;-81